Time;durP1;ratioP1;P1;durP2;ratioP2;P2;SDS_P1;SDS_P2;PMS_P1;PMS_P2;Temp;Humidity;BMP_temperature;BMP_pressure;BME280_temperature;BME280_humidity;BME280_pressure;Samples;Min_cycle;Max_cycle;Signal;HPM_P1;HPM_P2
2022/10/01 00:01:58;;;;;;;;;;;11.20;99.90;;;;;;5053517;28;20262;-61
2022/10/01 00:04:25;;;;;;;;;;;10.90;99.90;;;;;;5053258;28;19931;-64
2022/10/01 00:06:50;;;;;;;;;;;11.20;99.90;;;;;;5053535;28;20288;-62
2022/10/01 00:09:16;;;;;;;;;;;10.70;99.90;;;;;;5053471;28;19921;-60
2022/10/01 00:11:42;;;;;;;;;;;11.10;99.90;;;;;;5052070;28;20354;-60
2022/10/01 00:14:08;;;;;;;;;;;10.70;99.90;;;;;;5053323;28;19978;-61
2022/10/01 00:16:33;;;;;;;;;;;11.40;99.90;;;;;;5052702;28;20404;-61
2022/10/01 00:18:59;;;;;;;;;;;11.00;99.90;;;;;;5052958;28;19921;-59
2022/10/01 00:21:30;;;;;;;;;;;12.10;99.90;;;;;;5053264;28;19925;-61
2022/10/01 00:23:56;;;;;;;;;;;10.80;99.90;;;;;;5057072;28;19931;-63
2022/10/01 00:26:25;;;;;;;;;;;11.00;99.90;;;;;;5071376;28;20712;-62
2022/10/01 00:28:54;;;;;;;;;;;11.00;99.90;;;;;;5072847;28;19924;-62
2022/10/01 00:31:20;;;;;;;;;;;10.90;99.90;;;;;;5072811;28;19920;-61
2022/10/01 00:33:46;;;;;;;;;;;11.10;99.90;;;;;;5071675;28;19930;-61
2022/10/01 00:36:12;;;;;;;;;;;11.20;99.90;;;;;;5073069;28;19928;-61
2022/10/01 00:38:39;;;;;;;;;;;12.00;99.90;;;;;;5072928;28;20280;-61
2022/10/01 00:41:05;;;;;;;;;;;10.90;99.90;;;;;;5072913;28;20356;-61
2022/10/01 00:43:32;;;;;;;;;;;10.70;99.90;;;;;;5072936;28;20379;-61
2022/10/01 00:45:59;;;;;;;;;;;11.90;99.90;;;;;;5072648;28;20358;-62
2022/10/01 00:48:27;;;;;;;;;;;11.20;99.90;;;;;;5072763;28;19967;-61
2022/10/01 00:50:52;;;;;;;;;;;11.10;99.90;;;;;;5072808;28;19929;-61
2022/10/01 00:53:19;;;;;;;;;;;10.70;99.90;;;;;;5072726;28;19920;-61
2022/10/01 00:55:47;;;;;;;;;;;10.80;99.90;;;;;;5072665;28;20387;-61
2022/10/01 00:58:13;;;;;;;;;;;11.00;99.90;;;;;;5072712;28;19924;-65
2022/10/01 01:00:40;;;;;;;;;;;11.20;99.90;;;;;;5072456;28;20011;-61
2022/10/01 01:03:06;;;;;;;;;;;10.40;99.90;;;;;;5072693;28;19920;-61
2022/10/01 01:05:32;;;;;;;;;;;10.80;99.90;;;;;;5071703;28;19924;-60
2022/10/01 01:08:00;;;;;;;;;;;10.50;99.90;;;;;;5072645;28;20382;-62
2022/10/01 01:10:36;;;;;;;;;;;10.70;99.90;;;;;;5072792;28;19920;-60
2022/10/01 01:13:08;;;;;;;;;;;10.80;99.90;;;;;;5072695;28;20312;-61
2022/10/01 01:15:34;;;;;;;;;;;11.30;99.90;;;;;;5071413;28;19950;-63
2022/10/01 01:18:05;;;;;;;;;;;10.80;99.90;;;;;;5072490;28;19920;-62
2022/10/01 01:20:31;;;;;;;;;;;10.80;99.90;;;;;;5072473;28;20352;-61
2022/10/01 01:23:05;;;;;;;;;;;11.00;99.90;;;;;;5072490;28;19928;-60
2022/10/01 01:25:40;;;;;;;;;;;10.50;99.90;;;;;;5072423;28;19920;-60
2022/10/01 01:28:11;;;;;;;;;;;11.70;99.90;;;;;;5073951;28;19927;-62
2022/10/01 01:30:39;;;;;;;;;;;10.70;99.90;;;;;;5075739;28;20356;-61
2022/10/01 01:33:16;;;;;;;;;;;10.60;99.90;;;;;;5076372;28;19920;-61
2022/10/01 01:35:44;;;;;;;;;;;10.90;99.90;;;;;;5076436;28;19924;-60
2022/10/01 01:38:13;;;;;;;;;;;11.00;99.90;;;;;;5076354;28;19924;-62
2022/10/01 01:40:39;;;;;;;;;;;10.60;99.90;;;;;;5076333;28;20394;-64
2022/10/01 01:43:07;;;;;;;;;;;12.00;99.90;;;;;;5075862;28;20411;-61
2022/10/01 01:45:34;;;;;;;;;;;10.70;99.90;;;;;;5075933;28;19924;-61
2022/10/01 01:48:01;;;;;;;;;;;11.10;99.90;;;;;;5075804;28;20384;-64
2022/10/01 01:50:28;;;;;;;;;;;10.40;99.90;;;;;;5076065;28;20047;-60
2022/10/01 01:52:54;;;;;;;;;;;10.70;99.90;;;;;;5076022;28;19947;-62
2022/10/01 01:55:22;;;;;;;;;;;10.60;99.90;;;;;;5076077;28;19920;-61
2022/10/01 01:57:48;;;;;;;;;;;10.90;99.90;;;;;;5075629;28;20400;-62
2022/10/01 02:00:14;;;;;;;;;;;11.90;99.90;;;;;;5075634;28;19924;-62
2022/10/01 02:02:42;;;;;;;;;;;10.40;99.90;;;;;;5075842;28;20432;-62
2022/10/01 02:05:09;;;;;;;;;;;10.90;99.90;;;;;;5075830;28;19927;-61
2022/10/01 02:07:51;;;;;;;;;;;10.60;99.90;;;;;;5075721;28;19927;-61
2022/10/01 02:10:36;;;;;;;;;;;10.70;99.90;;;;;;5075768;28;19924;-60
2022/10/01 02:13:22;;;;;;;;;;;10.50;99.90;;;;;;5074804;28;19928;-62
2022/10/01 02:16:03;;;;;;;;;;;10.80;99.90;;;;;;5075533;28;19928;-60
2022/10/01 02:18:31;;;;;;;;;;;10.80;99.90;;;;;;5075498;28;19971;-61
2022/10/01 02:21:08;;;;;;;;;;;10.80;99.90;;;;;;5074246;28;19920;-60
2022/10/01 02:23:37;;;;;;;;;;;10.40;99.90;;;;;;5075751;28;19931;-61
2022/10/01 02:26:07;;;;;;;;;;;11.10;99.90;;;;;;5075428;28;19932;-61
2022/10/01 02:28:33;;;;;;;;;;;10.60;99.90;;;;;;5075040;28;19935;-62
2022/10/01 02:31:01;;;;;;;;;;;11.60;99.90;;;;;;5075102;28;19932;-62
2022/10/01 02:33:29;;;;;;;;;;;11.00;99.90;;;;;;5075490;28;20310;-60
2022/10/01 02:35:57;;;;;;;;;;;10.80;99.90;;;;;;5075238;28;19927;-60
2022/10/01 02:38:23;;;;;;;;;;;10.70;99.90;;;;;;5075027;28;19931;-61
2022/10/01 02:40:51;;;;;;;;;;;10.70;99.90;;;;;;5075168;28;19931;-61
2022/10/01 02:43:31;;;;;;;;;;;10.60;99.90;;;;;;5074821;28;19966;-61
2022/10/01 02:46:01;;;;;;;;;;;11.00;99.90;;;;;;5075378;28;20314;-61
2022/10/01 02:48:26;;;;;;;;;;;10.80;99.90;;;;;;5075046;28;19927;-62
2022/10/01 02:51:12;;;;;;;;;;;11.00;99.90;;;;;;5075032;28;20015;-62
2022/10/01 02:53:41;;;;;;;;;;;11.10;99.90;;;;;;5074883;28;20275;-61
2022/10/01 02:56:07;;;;;;;;;;;10.80;99.90;;;;;;5075111;28;20276;-61
2022/10/01 02:58:34;;;;;;;;;;;10.80;99.90;;;;;;5074877;28;20035;-62
2022/10/01 03:00:59;;;;;;;;;;;10.70;99.90;;;;;;5074811;28;19925;-65
2022/10/01 03:03:26;;;;;;;;;;;10.50;99.90;;;;;;5074775;28;19927;-63
2022/10/01 03:05:51;;;;;;;;;;;11.60;99.90;;;;;;5074765;28;19974;-61
2022/10/01 03:08:18;;;;;;;;;;;10.80;99.90;;;;;;5074613;28;19924;-61
2022/10/01 03:10:44;;;;;;;;;;;10.70;99.90;;;;;;5074371;28;19927;-61
2022/10/01 03:13:09;;;;;;;;;;;10.70;99.90;;;;;;5073232;28;19924;-64
2022/10/01 03:15:35;;;;;;;;;;;11.00;99.90;;;;;;5074213;28;19924;-64
2022/10/01 03:18:00;;;;;;;;;;;10.90;99.90;;;;;;5074154;28;20007;-64
2022/10/01 03:20:26;;;;;;;;;;;11.10;99.90;;;;;;5074383;28;19920;-62
2022/10/01 03:22:52;;;;;;;;;;;10.80;99.90;;;;;;5074365;28;19925;-62
2022/10/01 03:25:18;;;;;;;;;;;10.90;99.90;;;;;;5051174;28;20387;-63
2022/10/01 03:27:45;;;;;;;;;;;11.20;99.90;;;;;;5053641;28;19920;-61
2022/10/01 03:30:11;;;;;;;;;;;11.10;99.90;;;;;;5054229;28;19921;-63
2022/10/01 03:32:36;;;;;;;;;;;11.10;99.90;;;;;;5054105;28;20288;-66
2022/10/01 03:35:02;;;;;;;;;;;11.20;99.90;;;;;;5054110;28;19924;-62
2022/10/01 03:37:27;;;;;;;;;;;11.30;99.90;;;;;;5053786;28;19987;-62
2022/10/01 03:39:53;;;;;;;;;;;12.10;99.90;;;;;;5053743;28;19932;-63
2022/10/01 03:42:18;;;;;;;;;;;11.30;99.90;;;;;;5053640;28;19920;-62
2022/10/01 03:44:44;;;;;;;;;;;11.30;99.90;;;;;;5053937;28;19920;-61
2022/10/01 03:47:09;;;;;;;;;;;11.00;99.90;;;;;;5053889;28;19925;-62
2022/10/01 03:49:35;;;;;;;;;;;11.10;99.90;;;;;;5053871;28;19987;-62
2022/10/01 03:52:01;;;;;;;;;;;11.00;99.90;;;;;;5053095;28;19927;-62
2022/10/01 03:54:29;;;;;;;;;;;11.10;99.90;;;;;;5053725;28;19921;-61
2022/10/01 03:56:54;;;;;;;;;;;11.10;99.90;;;;;;5053688;28;19925;-61
2022/10/01 03:59:20;;;;;;;;;;;11.50;99.90;;;;;;5053657;28;20324;-66
2022/10/01 04:01:46;;;;;;;;;;;11.10;99.90;;;;;;5053631;28;19967;-62
2022/10/01 04:04:11;;;;;;;;;;;11.30;99.90;;;;;;5053808;28;20423;-61
2022/10/01 04:06:37;;;;;;;;;;;11.40;99.90;;;;;;5053181;28;19920;-61
2022/10/01 04:09:02;;;;;;;;;;;11.60;99.90;;;;;;5052871;28;19924;-61
2022/10/01 04:11:29;;;;;;;;;;;11.30;99.90;;;;;;5053429;28;19921;-61
2022/10/01 04:13:56;;;;;;;;;;;11.70;99.90;;;;;;5053303;28;19924;-61
2022/10/01 04:16:23;;;;;;;;;;;11.50;99.90;;;;;;5053368;28;20175;-61
2022/10/01 04:18:49;;;;;;;;;;;11.30;99.90;;;;;;5053295;28;19928;-62
2022/10/01 04:21:14;;;;;;;;;;;11.50;99.90;;;;;;5053259;28;19925;-64
2022/10/01 04:23:40;;;;;;;;;;;11.40;99.90;;;;;;5052933;28;19931;-62
2022/10/01 04:26:06;;;;;;;;;;;12.40;99.90;;;;;;5053146;28;20300;-63
2022/10/01 04:28:32;;;;;;;;;;;11.40;99.90;;;;;;5052620;28;20009;-62
2022/10/01 04:33:42;;;;;;;;;;;11.20;99.90;;;;;;5053021;28;19928;-61
2022/10/01 04:36:07;;;;;;;;;;;11.40;99.90;;;;;;5053022;28;19925;-62
2022/10/01 04:38:33;;;;;;;;;;;12.30;99.90;;;;;;5052714;28;19978;-61
2022/10/01 04:40:59;;;;;;;;;;;11.30;99.90;;;;;;5053221;28;19920;-62
2022/10/01 04:43:24;;;;;;;;;;;11.50;99.90;;;;;;5052931;28;20320;-61
2022/10/01 04:45:50;;;;;;;;;;;11.40;99.90;;;;;;5053206;28;20043;-62
2022/10/01 04:48:15;;;;;;;;;;;11.70;99.90;;;;;;5053418;28;19928;-61
2022/10/01 04:50:41;;;;;;;;;;;11.20;99.90;;;;;;5052890;28;19925;-66
2022/10/01 04:53:06;;;;;;;;;;;11.40;99.90;;;;;;5052469;28;20019;-63
2022/10/01 04:55:32;;;;;;;;;;;11.50;99.90;;;;;;5052673;28;20323;-62
2022/10/01 04:57:57;;;;;;;;;;;11.90;99.90;;;;;;5052641;28;20315;-63
2022/10/01 05:00:24;;;;;;;;;;;11.60;99.90;;;;;;5046969;28;20324;-62
2022/10/01 05:02:50;;;;;;;;;;;11.50;99.90;;;;;;5066875;28;20368;-62
2022/10/01 05:05:17;;;;;;;;;;;11.50;99.90;;;;;;5062404;28;19978;-61
2022/10/01 05:07:42;;;;;;;;;;;11.80;99.90;;;;;;5071218;28;20308;-63
2022/10/01 05:10:10;;;;;;;;;;;11.60;99.90;;;;;;5071844;28;20364;-62
2022/10/01 05:12:36;;;;;;;;;;;11.50;99.90;;;;;;5070573;28;20422;-62
2022/10/01 05:15:02;;;;;;;;;;;11.70;99.90;;;;;;5071379;28;19924;-62
2022/10/01 05:17:27;;;;;;;;;;;11.50;99.90;;;;;;5071735;28;19931;-65
2022/10/01 05:19:53;;;;;;;;;;;11.60;99.90;;;;;;5071946;28;20292;-63
2022/10/01 05:22:19;;;;;;;;;;;11.90;99.90;;;;;;5070966;28;19920;-64
2022/10/01 05:24:44;;;;;;;;;;;11.50;99.90;;;;;;5071772;28;20383;-62
2022/10/01 05:27:12;;;;;;;;;;;11.30;99.90;;;;;;5071683;28;20322;-62
2022/10/01 05:29:39;;;;;;;;;;;11.80;99.90;;;;;;5070713;28;19928;-63
2022/10/01 05:32:05;;;;;;;;;;;11.50;99.90;;;;;;5071693;28;19920;-62
2022/10/01 05:34:30;;;;;;;;;;;11.70;99.90;;;;;;5064839;28;20386;-63
2022/10/01 05:36:56;;;;;;;;;;;11.60;99.90;;;;;;5068321;28;19924;-67
2022/10/01 05:39:22;;;;;;;;;;;12.10;99.90;;;;;;5071150;28;20015;-63
2022/10/01 05:41:47;;;;;;;;;;;11.70;99.90;;;;;;5071507;28;19924;-63
2022/10/01 05:44:13;;;;;;;;;;;11.60;99.90;;;;;;5071625;28;19920;-62
2022/10/01 05:46:39;;;;;;;;;;;11.80;99.90;;;;;;5071602;28;19930;-62
2022/10/01 05:49:06;;;;;;;;;;;12.20;99.90;;;;;;5068381;28;19947;-63
2022/10/01 05:51:32;;;;;;;;;;;12.90;99.90;;;;;;5071817;28;19928;-63
2022/10/01 05:53:58;;;;;;;;;;;11.80;99.90;;;;;;5071977;28;19982;-63
2022/10/01 05:56:24;;;;;;;;;;;11.70;99.90;;;;;;5072083;28;19971;-63
2022/10/01 05:58:50;;;;;;;;;;;11.70;99.90;;;;;;5071795;28;20380;-65
2022/10/01 06:01:15;;;;;;;;;;;11.90;99.90;;;;;;5072071;28;19931;-63
2022/10/01 06:03:41;;;;;;;;;;;11.40;99.90;;;;;;5072018;28;20272;-63
2022/10/01 06:06:07;;;;;;;;;;;11.80;99.90;;;;;;5071774;28;19924;-63
2022/10/01 06:08:36;;;;;;;;;;;11.60;99.90;;;;;;5071997;28;19931;-63
2022/10/01 06:11:02;;;;;;;;;;;11.40;99.90;;;;;;5071917;28;20084;-64
2022/10/01 06:13:28;;;;;;;;;;;11.70;99.90;;;;;;5072278;28;19924;-63
2022/10/01 06:15:54;;;;;;;;;;;11.80;99.90;;;;;;5075608;28;19977;-63
2022/10/01 06:18:19;;;;;;;;;;;11.80;99.90;;;;;;5075559;28;20019;-63
2022/10/01 06:20:45;;;;;;;;;;;11.20;99.90;;;;;;5075233;28;20324;-63
2022/10/01 06:23:11;;;;;;;;;;;11.60;99.90;;;;;;5075468;28;20336;-62
2022/10/01 06:25:37;;;;;;;;;;;11.20;99.90;;;;;;5075486;28;19925;-62
2022/10/01 06:28:04;;;;;;;;;;;11.60;99.90;;;;;;5075406;28;19970;-62
2022/10/01 06:30:31;;;;;;;;;;;12.50;99.90;;;;;;5075058;28;20003;-62
2022/10/01 06:33:03;;;;;;;;;;;11.90;99.90;;;;;;5075297;28;20292;-65
2022/10/01 06:35:29;;;;;;;;;;;12.20;99.90;;;;;;5075348;28;20288;-63
2022/10/01 06:37:55;;;;;;;;;;;12.10;99.90;;;;;;5075330;28;19920;-63
2022/10/01 06:40:20;;;;;;;;;;;11.90;99.90;;;;;;5075445;28;20275;-62
2022/10/01 06:42:47;;;;;;;;;;;12.00;99.90;;;;;;5075272;28;19924;-62
2022/10/01 06:45:13;;;;;;;;;;;13.10;99.90;;;;;;5075124;28;20372;-63
2022/10/01 06:47:38;;;;;;;;;;;12.00;99.90;;;;;;5075041;28;19920;-63
2022/10/01 06:50:04;;;;;;;;;;;12.10;99.90;;;;;;5074711;28;20378;-63
2022/10/01 06:52:48;;;;;;;;;;;12.40;99.90;;;;;;5074607;28;20015;-62
2022/10/01 06:55:21;;;;;;;;;;;12.20;99.90;;;;;;5074846;28;19982;-63
2022/10/01 06:57:47;;;;;;;;;;;12.40;99.90;;;;;;5074784;28;19920;-62
2022/10/01 07:00:13;;;;;;;;;;;13.10;99.90;;;;;;5073498;28;19928;-65
2022/10/01 07:02:39;;;;;;;;;;;12.20;99.90;;;;;;5073742;28;20365;-63
2022/10/01 07:05:06;;;;;;;;;;;12.30;99.90;;;;;;5074424;28;19920;-62
2022/10/01 07:07:33;;;;;;;;;;;12.90;99.90;;;;;;5074693;28;19920;-63
2022/10/01 07:09:59;;;;;;;;;;;12.70;99.90;;;;;;5074603;28;20019;-63
2022/10/01 07:12:25;;;;;;;;;;;13.10;99.90;;;;;;5074507;28;20027;-63
2022/10/01 07:14:50;;;;;;;;;;;12.50;99.90;;;;;;5074507;28;19942;-63
2022/10/01 07:17:16;;;;;;;;;;;12.30;99.90;;;;;;5074171;28;20364;-63
2022/10/01 07:19:42;;;;;;;;;;;12.60;99.90;;;;;;5074336;28;19928;-63
2022/10/01 07:22:07;;;;;;;;;;;12.70;99.90;;;;;;5073005;28;20007;-63
2022/10/01 07:24:33;;;;;;;;;;;12.70;99.90;;;;;;5074182;28;19929;-64
2022/10/01 07:26:58;;;;;;;;;;;12.80;99.90;;;;;;5073372;28;19926;-64
2022/10/01 07:29:24;;;;;;;;;;;13.10;99.90;;;;;;5074033;28;19927;-63
2022/10/01 07:31:50;;;;;;;;;;;12.90;99.90;;;;;;5073836;28;20043;-63
2022/10/01 07:34:15;;;;;;;;;;;12.90;99.90;;;;;;5073799;28;20403;-63
2022/10/01 07:36:44;;;;;;;;;;;13.10;99.90;;;;;;5072787;28;19921;-63
2022/10/01 07:39:10;;;;;;;;;;;13.30;99.90;;;;;;5074019;28;19920;-63
2022/10/01 07:41:36;;;;;;;;;;;13.10;99.90;;;;;;5073901;28;19924;-64
2022/10/01 07:44:03;;;;;;;;;;;13.40;99.90;;;;;;5073903;28;19931;-63
2022/10/01 07:46:28;;;;;;;;;;;14.00;99.90;;;;;;5073573;28;19924;-64
2022/10/01 07:48:54;;;;;;;;;;;13.40;99.90;;;;;;5073793;28;20295;-64
2022/10/01 07:51:19;;;;;;;;;;;13.30;99.90;;;;;;5073719;28;19921;-64
2022/10/01 07:53:45;;;;;;;;;;;13.40;99.90;;;;;;5073324;28;19921;-65
2022/10/01 07:56:11;;;;;;;;;;;13.70;99.90;;;;;;5073656;28;19920;-63
2022/10/01 07:58:36;;;;;;;;;;;13.60;99.90;;;;;;5073666;28;20015;-63
2022/10/01 08:01:03;;;;;;;;;;;13.60;99.90;;;;;;5073261;28;19932;-64
2022/10/01 08:03:28;;;;;;;;;;;14.00;99.90;;;;;;5073581;28;19925;-64
2022/10/01 08:05:54;;;;;;;;;;;14.60;99.90;;;;;;5073492;28;19973;-63
2022/10/01 08:08:19;;;;;;;;;;;14.00;99.90;;;;;;5073480;28;19925;-64
2022/10/01 08:10:45;;;;;;;;;;;13.60;99.90;;;;;;5073677;28;19927;-63
2022/10/01 08:13:15;;;;;;;;;;;14.40;99.90;;;;;;5073291;28;19943;-64
2022/10/01 08:15:42;;;;;;;;;;;14.40;99.90;;;;;;5073034;28;20050;-64
2022/10/01 08:18:09;;;;;;;;;;;14.20;99.90;;;;;;5071966;28;19932;-65
2022/10/01 08:20:34;;;;;;;;;;;14.40;99.90;;;;;;5073170;28;19968;-63
2022/10/01 08:23:04;;;;;;;;;;;14.60;99.90;;;;;;5073422;28;20017;-64
2022/10/01 08:25:29;;;;;;;;;;;14.40;99.90;;;;;;5073107;28;19921;-64
2022/10/01 08:27:55;;;;;;;;;;;14.70;99.90;;;;;;5073113;28;20004;-64
2022/10/01 08:30:20;;;;;;;;;;;14.40;99.90;;;;;;5072525;28;20380;-64
2022/10/01 08:32:46;;;;;;;;;;;14.70;99.90;;;;;;5073068;28;19921;-63
2022/10/01 08:35:11;;;;;;;;;;;15.00;99.90;;;;;;5072966;28;19924;-63
2022/10/01 08:37:37;;;;;;;;;;;15.20;99.90;;;;;;5072712;28;20018;-63
2022/10/01 08:40:03;;;;;;;;;;;15.50;99.90;;;;;;5072896;28;19942;-64
2022/10/01 08:42:46;;;;;;;;;;;15.00;99.90;;;;;;5072838;28;19986;-63
2022/10/01 08:45:24;;;;;;;;;;;15.10;99.90;;;;;;5072618;28;19920;-64
2022/10/01 08:48:00;;;;;;;;;;;15.20;99.90;;;;;;5072852;28;19920;-63
2022/10/01 08:50:44;;;;;;;;;;;14.80;99.90;;;;;;5071603;28;20011;-62
2022/10/01 08:53:15;;;;;;;;;;;14.60;99.90;;;;;;5072728;28;20024;-62
2022/10/01 08:55:41;;;;;;;;;;;14.80;99.90;;;;;;5071417;28;19924;-62
2022/10/01 08:58:09;;;;;;;;;;;14.50;99.90;;;;;;5072738;28;20307;-62
2022/10/01 09:00:39;;;;;;;;;;;14.50;99.90;;;;;;5072436;28;20281;-63
2022/10/01 09:03:05;;;;;;;;;;;13.80;99.90;;;;;;5072613;28;19924;-63
2022/10/01 09:05:54;;;;;;;;;;;14.20;99.90;;;;;;5072591;28;19970;-62
2022/10/01 09:08:44;;;;;;;;;;;13.70;99.90;;;;;;5072633;28;19924;-62
2022/10/01 09:11:32;;;;;;;;;;;14.00;99.90;;;;;;5072605;28;19924;-62
2022/10/01 09:14:10;;;;;;;;;;;14.40;99.90;;;;;;5066333;28;20048;-62
2022/10/01 09:16:36;;;;;;;;;;;14.70;99.90;;;;;;5072566;28;19967;-62
2022/10/01 09:19:19;;;;;;;;;;;15.00;99.90;;;;;;5072421;28;20384;-65
2022/10/01 09:21:57;;;;;;;;;;;15.10;99.90;;;;;;5072409;28;20022;-63
2022/10/01 09:24:22;;;;;;;;;;;15.20;99.90;;;;;;5072387;28;19925;-64
2022/10/01 09:26:48;;;;;;;;;;;15.30;99.90;;;;;;5072054;28;19927;-63
2022/10/01 09:29:16;;;;;;;;;;;15.30;99.90;;;;;;5071769;28;19924;-64
2022/10/01 09:31:46;;;;;;;;;;;15.50;99.90;;;;;;5072306;28;19920;-64
2022/10/01 09:34:13;;;;;;;;;;;15.60;99.90;;;;;;5072381;28;20067;-64
2022/10/01 09:36:41;;;;;;;;;;;15.20;99.90;;;;;;5072275;28;19921;-63
2022/10/01 09:39:28;;;;;;;;;;;14.80;99.90;;;;;;5072285;28;20015;-63
2022/10/01 09:41:54;;;;;;;;;;;14.50;99.90;;;;;;5072201;28;20013;-62
2022/10/01 09:44:28;;;;;;;;;;;14.20;99.90;;;;;;5071965;28;19921;-61
2022/10/01 09:46:56;;;;;;;;;;;13.80;99.90;;;;;;5072275;28;19979;-61
2022/10/01 09:49:26;;;;;;;;;;;13.40;99.90;;;;;;5074103;28;20029;-61
2022/10/01 09:51:54;;;;;;;;;;;13.00;99.90;;;;;;5075748;28;20387;-61
2022/10/01 09:54:30;;;;;;;;;;;13.10;99.90;;;;;;5076089;28;19997;-60
2022/10/01 10:00:18;;;;;;;;;;;12.70;99.90;;;;;;5075765;28;20354;-60
2022/10/01 10:02:44;;;;;;;;;;;11.10;99.90;;;;;;5075906;28;19920;-60
2022/10/01 10:05:14;;;;;;;;;;;13.40;99.90;;;;;;5075834;28;19978;-61
2022/10/01 10:07:44;;;;;;;;;;;13.00;99.90;;;;;;5075835;28;19976;-61
2022/10/01 10:10:15;;;;;;;;;;;13.40;99.90;;;;;;5075843;28;19982;-63
2022/10/01 10:12:42;;;;;;;;;;;13.30;99.90;;;;;;5075449;28;20272;-61
2022/10/01 10:15:08;;;;;;;;;;;13.20;99.90;;;;;;5075645;28;20012;-61
2022/10/01 10:17:36;;;;;;;;;;;12.90;99.90;;;;;;5074637;28;19924;-62
2022/10/01 10:20:07;;;;;;;;;;;13.40;99.90;;;;;;5075846;28;20334;-62
2022/10/01 10:22:33;;;;;;;;;;;14.00;99.90;;;;;;5075751;28;20007;-61
2022/10/01 10:25:09;;;;;;;;;;;13.60;99.90;;;;;;5075505;28;20019;-61
2022/10/01 10:27:35;;;;;;;;;;;13.00;99.90;;;;;;5075453;28;19964;-62
2022/10/01 10:30:05;;;;;;;;;;;12.90;99.90;;;;;;5075340;28;20379;-65
2022/10/01 10:32:31;;;;;;;;;;;13.10;99.90;;;;;;5075361;28;19924;-63
2022/10/01 10:35:04;;;;;;;;;;;13.00;99.90;;;;;;5075334;28;20010;-61
2022/10/01 10:37:33;;;;;;;;;;;13.00;99.90;;;;;;5075303;28;19970;-60
2022/10/01 10:39:58;;;;;;;;;;;13.00;99.90;;;;;;5075250;28;19973;-60
2022/10/01 10:42:24;;;;;;;;;;;12.80;99.90;;;;;;5074896;28;20272;-60
2022/10/01 10:44:51;;;;;;;;;;;13.50;99.90;;;;;;5075124;28;19975;-62
2022/10/01 10:47:18;;;;;;;;;;;13.10;99.90;;;;;;5075105;28;19924;-61
2022/10/01 10:49:44;;;;;;;;;;;12.90;99.90;;;;;;5075011;28;19920;-61
2022/10/01 10:52:20;;;;;;;;;;;12.90;99.90;;;;;;5074879;28;19927;-61
2022/10/01 10:54:47;;;;;;;;;;;12.90;99.90;;;;;;5074686;28;19931;-61
2022/10/01 10:57:20;;;;;;;;;;;12.80;99.90;;;;;;5074906;28;19928;-61
2022/10/01 11:00:07;;;;;;;;;;;13.00;99.90;;;;;;5074841;28;19925;-63
2022/10/01 11:02:32;;;;;;;;;;;13.30;99.90;;;;;;5074713;28;19937;-62
2022/10/01 11:05:03;;;;;;;;;;;13.50;99.90;;;;;;5074742;28;19924;-61
2022/10/01 11:07:28;;;;;;;;;;;13.50;99.90;;;;;;5074715;28;20011;-60
2022/10/01 11:10:13;;;;;;;;;;;13.60;99.90;;;;;;5074352;28;20070;-61
2022/10/01 11:12:49;;;;;;;;;;;13.80;99.90;;;;;;5074550;28;19924;-61
2022/10/01 11:15:33;;;;;;;;;;;14.10;99.90;;;;;;5074553;28;19964;-61
2022/10/01 11:17:58;;;;;;;;;;;14.10;99.90;;;;;;5074438;28;19928;-63
2022/10/01 11:20:39;;;;;;;;;;;14.60;99.90;;;;;;5074347;28;19920;-62
2022/10/01 11:23:15;;;;;;;;;;;14.90;99.90;;;;;;5074379;28;19927;-61
2022/10/01 11:25:43;;;;;;;;;;;14.80;99.90;;;;;;5074088;28;19975;-63
2022/10/01 11:28:16;;;;;;;;;;;14.70;99.90;;;;;;5074279;28;19924;-62
2022/10/01 11:31:05;;;;;;;;;;;14.60;99.90;;;;;;5074133;28;19928;-63
2022/10/01 11:33:56;;;;;;;;;;;14.60;99.90;;;;;;5068364;28;19920;-63
2022/10/01 11:36:24;;;;;;;;;;;14.40;99.90;;;;;;5074190;28;20322;-63
2022/10/01 11:38:55;;;;;;;;;;;14.70;99.90;;;;;;5073727;28;19924;-63
2022/10/01 11:41:34;;;;;;;;;;;14.70;99.90;;;;;;5074405;28;19920;-62
2022/10/01 11:44:18;;;;;;;;;;;14.90;99.90;;;;;;5073972;28;19924;-63
2022/10/01 11:46:44;;;;;;;;;;;14.90;99.90;;;;;;5072912;28;19926;-62
2022/10/01 11:49:23;;;;;;;;;;;15.10;99.90;;;;;;5073854;28;20494;-65
2022/10/01 11:51:54;;;;;;;;;;;15.00;99.90;;;;;;5073808;28;19920;-62
2022/10/01 11:54:22;;;;;;;;;;;15.20;99.90;;;;;;5073444;28;20012;-63
2022/10/01 11:59:36;;;;;;;;;;;15.30;99.90;;;;;;5073634;28;19959;-62
2022/10/01 12:02:15;;;;;;;;;;;15.50;99.90;;;;;;5073578;28;19981;-62
2022/10/01 12:04:48;;;;;;;;;;;15.40;99.90;;;;;;5073538;28;19924;-65
2022/10/01 12:07:17;;;;;;;;;;;15.70;99.90;;;;;;5073314;28;19927;-63
2022/10/01 12:09:51;;;;;;;;;;;16.40;99.90;;;;;;5073381;28;19924;-63
2022/10/01 12:12:36;;;;;;;;;;;16.60;99.90;;;;;;5073141;28;19928;-63
2022/10/01 12:15:14;;;;;;;;;;;16.40;99.90;;;;;;5073611;28;19931;-63
2022/10/01 12:17:45;;;;;;;;;;;16.90;99.90;;;;;;5073331;28;20383;-61
2022/10/01 12:20:19;;;;;;;;;;;16.60;99.90;;;;;;5073454;28;19921;-61
2022/10/01 12:22:46;;;;;;;;;;;16.80;99.90;;;;;;5073058;28;20360;-61
2022/10/01 12:25:12;;;;;;;;;;;16.70;99.90;;;;;;5072907;28;20323;-63
2022/10/01 12:27:37;;;;;;;;;;;16.60;99.90;;;;;;5072815;28;19931;-63
2022/10/01 12:30:15;;;;;;;;;;;16.80;99.90;;;;;;5073002;28;19927;-63
2022/10/01 12:32:46;;;;;;;;;;;16.40;99.90;;;;;;5073065;28;19967;-61
2022/10/01 12:35:12;;;;;;;;;;;16.00;99.90;;;;;;5071825;28;19925;-65
2022/10/01 12:37:57;;;;;;;;;;;15.90;99.90;;;;;;5072708;28;19925;-66
2022/10/01 12:40:23;;;;;;;;;;;16.20;99.90;;;;;;5072920;28;19986;-63
2022/10/01 12:42:52;;;;;;;;;;;16.10;99.90;;;;;;5072883;28;19924;-62
2022/10/01 12:45:30;;;;;;;;;;;16.30;99.90;;;;;;5072798;28;20313;-64
2022/10/01 12:48:05;;;;;;;;;;;16.00;99.90;;;;;;5072819;28;20360;-62
2022/10/01 12:50:49;;;;;;;;;;;16.00;99.90;;;;;;5072813;28;19966;-63
2022/10/01 12:53:38;;;;;;;;;;;16.30;99.90;;;;;;5071418;28;19932;-62
2022/10/01 12:56:06;;;;;;;;;;;16.80;99.90;;;;;;5072695;28;20010;-62
2022/10/01 12:58:35;;;;;;;;;;;17.20;99.90;;;;;;5072670;28;19971;-63
2022/10/01 13:01:00;;;;;;;;;;;17.00;99.90;;;;;;5071659;28;20288;-61
2022/10/01 13:03:41;;;;;;;;;;;16.60;99.90;;;;;;5072620;28;19921;-63
2022/10/01 13:06:18;;;;;;;;;;;16.70;99.90;;;;;;5072409;28;20488;-63
2022/10/01 13:08:59;;;;;;;;;;;16.30;99.90;;;;;;5072571;28;20288;-63
2022/10/01 13:11:36;;;;;;;;;;;15.90;99.90;;;;;;5072575;28;19954;-64
2022/10/01 13:14:03;;;;;;;;;;;15.50;99.90;;;;;;5072478;28;19958;-62
2022/10/01 13:16:31;;;;;;;;;;;14.50;99.90;;;;;;5072471;28;19920;-61
2022/10/01 13:19:12;;;;;;;;;;;13.60;99.90;;;;;;5072448;28;19982;-63
2022/10/01 13:21:41;;;;;;;;;;;13.70;99.90;;;;;;5072516;28;20288;-61
2022/10/01 13:24:27;;;;;;;;;;;13.30;99.90;;;;;;5073982;28;19920;-61
2022/10/01 13:26:57;;;;;;;;;;;13.30;99.90;;;;;;5076614;28;19925;-60
2022/10/01 13:29:24;;;;;;;;;;;13.70;99.90;;;;;;5076433;28;19931;-60
2022/10/01 13:31:51;;;;;;;;;;;13.50;99.90;;;;;;5076532;28;19920;-60
2022/10/01 13:34:31;;;;;;;;;;;13.40;99.90;;;;;;5076207;28;19924;-61
2022/10/01 13:37:07;;;;;;;;;;;13.70;99.90;;;;;;5076386;28;19921;-60
2022/10/01 13:39:33;;;;;;;;;;;14.00;99.90;;;;;;5076476;28;20291;-60
2022/10/01 13:41:59;;;;;;;;;;;14.20;99.90;;;;;;5075064;28;19931;-61
2022/10/01 13:44:30;;;;;;;;;;;14.80;99.90;;;;;;5076288;28;19927;-61
2022/10/01 13:47:06;;;;;;;;;;;14.70;99.90;;;;;;5076388;28;19927;-62
2022/10/01 13:49:33;;;;;;;;;;;15.10;99.90;;;;;;5076001;28;19931;-62
2022/10/01 13:52:01;;;;;;;;;;;15.40;99.90;;;;;;5076115;28;19943;-62
2022/10/01 13:54:31;;;;;;;;;;;15.90;99.90;;;;;;5076135;28;19960;-62
2022/10/01 13:57:07;;;;;;;;;;;15.40;99.90;;;;;;5076128;28;20014;-62
2022/10/01 13:59:34;;;;;;;;;;;15.00;99.90;;;;;;5076013;28;19929;-64
2022/10/01 14:02:01;;;;;;;;;;;14.40;99.90;;;;;;5075975;28;19959;-62
2022/10/01 14:04:53;;;;;;;;;;;14.50;99.90;;;;;;5075827;28;19920;-62
2022/10/01 14:07:24;;;;;;;;;;;14.90;99.90;;;;;;5073506;28;19924;-64
2022/10/01 14:09:51;;;;;;;;;;;15.00;99.90;;;;;;5075837;28;20275;-63
2022/10/01 14:18:17;;;;;;;;;;;15.70;99.90;;;;;;5075359;28;20026;-62
2022/10/01 14:20:55;;;;;;;;;;;16.30;99.90;;;;;;5075529;28;19936;-64
2022/10/01 14:23:43;;;;;;;;;;;16.50;99.90;;;;;;5075532;28;20276;-62
2022/10/01 14:26:21;;;;;;;;;;;16.60;99.90;;;;;;5055552;28;19947;-62
2022/10/01 14:28:53;;;;;;;;;;;16.00;99.90;;;;;;5074000;28;19924;-62
2022/10/01 14:31:18;;;;;;;;;;;15.80;99.90;;;;;;5075452;28;19928;-60
2022/10/01 14:33:44;;;;;;;;;;;14.90;99.90;;;;;;5075009;28;20348;-61
2022/10/01 14:36:12;;;;;;;;;;;14.70;99.90;;;;;;5074800;28;19924;-61
2022/10/01 14:38:38;;;;;;;;;;;14.70;99.90;;;;;;5075263;28;19925;-62
2022/10/01 14:41:04;;;;;;;;;;;14.10;99.90;;;;;;5075642;28;19921;-60
2022/10/01 14:43:30;;;;;;;;;;;14.40;99.90;;;;;;5075160;28;19920;-62